sensor_id;sensor_type;location;lat;lon;timestamp;P1;durP1;ratioP1;P2;durP2;ratioP2
74851;SDS011;63400;50.650;6.832;2023-06-04T00:01:08;10.05;;;2.35;;
74851;SDS011;63400;50.650;6.832;2023-06-04T00:03:34;9.68;;;2.05;;
74851;SDS011;63400;50.650;6.832;2023-06-04T00:06:00;10.82;;;2.40;;
74851;SDS011;63400;50.650;6.832;2023-06-04T00:08:25;10.75;;;2.10;;
74851;SDS011;63400;50.650;6.832;2023-06-04T00:10:51;9.02;;;2.00;;
74851;SDS011;63400;50.650;6.832;2023-06-04T00:13:16;14.02;;;2.45;;
74851;SDS011;63400;50.650;6.832;2023-06-04T00:15:42;9.32;;;2.45;;
74851;SDS011;63400;50.650;6.832;2023-06-04T00:18:07;10.30;;;2.00;;
74851;SDS011;63400;50.650;6.832;2023-06-04T00:20:33;9.20;;;2.10;;
74851;SDS011;63400;50.650;6.832;2023-06-04T00:22:58;9.57;;;2.00;;
74851;SDS011;63400;50.650;6.832;2023-06-04T00:25:24;10.60;;;1.90;;
74851;SDS011;63400;50.650;6.832;2023-06-04T00:27:49;10.43;;;1.95;;
74851;SDS011;63400;50.650;6.832;2023-06-04T00:30:15;8.88;;;1.98;;
74851;SDS011;63400;50.650;6.832;2023-06-04T00:32:40;10.40;;;2.47;;
74851;SDS011;63400;50.650;6.832;2023-06-04T00:35:06;8.18;;;1.88;;
74851;SDS011;63400;50.650;6.832;2023-06-04T00:37:32;8.80;;;1.70;;
74851;SDS011;63400;50.650;6.832;2023-06-04T00:39:58;7.15;;;1.27;;
74851;SDS011;63400;50.650;6.832;2023-06-04T00:42:24;8.80;;;1.80;;
74851;SDS011;63400;50.650;6.832;2023-06-04T00:44:49;10.43;;;2.17;;
74851;SDS011;63400;50.650;6.832;2023-06-04T00:47:15;10.85;;;1.83;;
74851;SDS011;63400;50.650;6.832;2023-06-04T00:49:41;8.38;;;1.98;;
74851;SDS011;63400;50.650;6.832;2023-06-04T00:52:10;9.02;;;2.22;;
74851;SDS011;63400;50.650;6.832;2023-06-04T00:54:36;8.80;;;1.85;;
74851;SDS011;63400;50.650;6.832;2023-06-04T00:57:03;7.32;;;1.52;;
74851;SDS011;63400;50.650;6.832;2023-06-04T00:59:30;9.10;;;1.67;;
74851;SDS011;63400;50.650;6.832;2023-06-04T01:02:00;9.20;;;1.80;;
74851;SDS011;63400;50.650;6.832;2023-06-04T01:06:56;8.48;;;1.60;;
74851;SDS011;63400;50.650;6.832;2023-06-04T01:09:28;8.63;;;1.83;;
74851;SDS011;63400;50.650;6.832;2023-06-04T01:11:54;10.25;;;2.30;;
74851;SDS011;63400;50.650;6.832;2023-06-04T01:14:23;12.32;;;2.97;;
74851;SDS011;63400;50.650;6.832;2023-06-04T01:16:55;9.65;;;1.98;;
74851;SDS011;63400;50.650;6.832;2023-06-04T01:25:04;10.95;;;2.05;;
74851;SDS011;63400;50.650;6.832;2023-06-04T01:27:31;14.40;;;2.65;;
74851;SDS011;63400;50.650;6.832;2023-06-04T01:29:57;6.93;;;1.42;;
74851;SDS011;63400;50.650;6.832;2023-06-04T01:32:25;8.70;;;2.10;;
74851;SDS011;63400;50.650;6.832;2023-06-04T01:34:51;9.10;;;1.88;;
74851;SDS011;63400;50.650;6.832;2023-06-04T01:37:16;11.52;;;2.35;;
74851;SDS011;63400;50.650;6.832;2023-06-04T01:39:42;10.00;;;1.85;;
74851;SDS011;63400;50.650;6.832;2023-06-04T01:42:07;11.35;;;1.80;;
74851;SDS011;63400;50.650;6.832;2023-06-04T01:44:33;8.68;;;1.98;;
74851;SDS011;63400;50.650;6.832;2023-06-04T01:46:59;9.50;;;1.80;;
74851;SDS011;63400;50.650;6.832;2023-06-04T01:49:25;10.05;;;2.03;;
74851;SDS011;63400;50.650;6.832;2023-06-04T01:51:50;10.90;;;2.00;;
74851;SDS011;63400;50.650;6.832;2023-06-04T01:54:16;11.95;;;2.47;;
74851;SDS011;63400;50.650;6.832;2023-06-04T01:56:41;12.77;;;2.33;;
74851;SDS011;63400;50.650;6.832;2023-06-04T01:59:07;10.23;;;2.08;;
74851;SDS011;63400;50.650;6.832;2023-06-04T02:01:32;11.02;;;2.10;;
74851;SDS011;63400;50.650;6.832;2023-06-04T02:03:59;24.10;;;6.05;;
74851;SDS011;63400;50.650;6.832;2023-06-04T02:06:24;9.02;;;1.90;;
74851;SDS011;63400;50.650;6.832;2023-06-04T02:08:56;9.75;;;1.95;;
74851;SDS011;63400;50.650;6.832;2023-06-04T02:11:21;14.82;;;2.28;;
74851;SDS011;63400;50.650;6.832;2023-06-04T02:13:47;11.15;;;2.13;;
74851;SDS011;63400;50.650;6.832;2023-06-04T02:16:12;9.45;;;1.80;;
74851;SDS011;63400;50.650;6.832;2023-06-04T02:18:38;11.13;;;2.15;;
74851;SDS011;63400;50.650;6.832;2023-06-04T02:21:03;8.93;;;1.60;;
74851;SDS011;63400;50.650;6.832;2023-06-04T02:23:29;10.60;;;2.10;;
74851;SDS011;63400;50.650;6.832;2023-06-04T02:25:54;7.40;;;1.42;;
74851;SDS011;63400;50.650;6.832;2023-06-04T02:28:20;9.85;;;2.13;;
74851;SDS011;63400;50.650;6.832;2023-06-04T02:30:46;10.00;;;1.67;;
74851;SDS011;63400;50.650;6.832;2023-06-04T02:33:11;5.97;;;1.48;;
74851;SDS011;63400;50.650;6.832;2023-06-04T02:35:38;7.70;;;1.50;;
74851;SDS011;63400;50.650;6.832;2023-06-04T02:38:03;10.15;;;2.00;;
74851;SDS011;63400;50.650;6.832;2023-06-04T02:40:29;9.68;;;1.58;;
74851;SDS011;63400;50.650;6.832;2023-06-04T02:42:55;9.90;;;1.98;;
74851;SDS011;63400;50.650;6.832;2023-06-04T02:45:21;10.57;;;2.05;;
74851;SDS011;63400;50.650;6.832;2023-06-04T02:47:47;11.85;;;2.10;;
74851;SDS011;63400;50.650;6.832;2023-06-04T02:50:13;8.65;;;1.67;;
74851;SDS011;63400;50.650;6.832;2023-06-04T02:52:39;9.63;;;1.70;;
74851;SDS011;63400;50.650;6.832;2023-06-04T02:55:05;7.82;;;1.48;;
74851;SDS011;63400;50.650;6.832;2023-06-04T02:57:32;12.05;;;1.95;;
74851;SDS011;63400;50.650;6.832;2023-06-04T02:59:58;10.32;;;1.83;;
74851;SDS011;63400;50.650;6.832;2023-06-04T03:02:24;7.60;;;1.45;;
74851;SDS011;63400;50.650;6.832;2023-06-04T03:04:50;11.05;;;1.90;;
74851;SDS011;63400;50.650;6.832;2023-06-04T03:07:16;10.40;;;2.13;;
74851;SDS011;63400;50.650;6.832;2023-06-04T03:09:45;11.05;;;2.22;;
74851;SDS011;63400;50.650;6.832;2023-06-04T03:12:12;13.10;;;2.72;;
74851;SDS011;63400;50.650;6.832;2023-06-04T03:14:37;11.60;;;2.10;;
74851;SDS011;63400;50.650;6.832;2023-06-04T03:17:02;11.40;;;2.08;;
74851;SDS011;63400;50.650;6.832;2023-06-04T03:19:35;14.10;;;2.47;;
74851;SDS011;63400;50.650;6.832;2023-06-04T03:22:02;12.82;;;2.72;;
74851;SDS011;63400;50.650;6.832;2023-06-04T03:24:39;13.73;;;2.60;;
74851;SDS011;63400;50.650;6.832;2023-06-04T03:27:05;16.15;;;2.97;;
74851;SDS011;63400;50.650;6.832;2023-06-04T03:29:32;12.52;;;2.33;;
74851;SDS011;63400;50.650;6.832;2023-06-04T03:31:58;11.95;;;2.42;;
74851;SDS011;63400;50.650;6.832;2023-06-04T03:34:24;12.75;;;2.70;;
74851;SDS011;63400;50.650;6.832;2023-06-04T03:36:51;12.68;;;2.53;;
74851;SDS011;63400;50.650;6.832;2023-06-04T03:39:17;11.10;;;1.80;;
74851;SDS011;63400;50.650;6.832;2023-06-04T03:41:42;10.45;;;2.00;;
74851;SDS011;63400;50.650;6.832;2023-06-04T03:44:08;11.80;;;2.33;;
74851;SDS011;63400;50.650;6.832;2023-06-04T03:46:33;11.27;;;2.30;;
74851;SDS011;63400;50.650;6.832;2023-06-04T03:48:59;14.15;;;2.28;;
74851;SDS011;63400;50.650;6.832;2023-06-04T03:51:24;14.15;;;2.60;;
74851;SDS011;63400;50.650;6.832;2023-06-04T03:53:50;11.30;;;2.35;;
74851;SDS011;63400;50.650;6.832;2023-06-04T03:56:15;14.00;;;2.80;;
74851;SDS011;63400;50.650;6.832;2023-06-04T03:58:41;13.68;;;2.80;;
74851;SDS011;63400;50.650;6.832;2023-06-04T04:01:06;15.68;;;3.08;;
74851;SDS011;63400;50.650;6.832;2023-06-04T04:03:35;11.02;;;2.42;;
74851;SDS011;63400;50.650;6.832;2023-06-04T04:06:01;13.68;;;2.67;;
74851;SDS011;63400;50.650;6.832;2023-06-04T04:08:26;12.68;;;2.88;;
74851;SDS011;63400;50.650;6.832;2023-06-04T04:10:56;14.15;;;2.45;;
74851;SDS011;63400;50.650;6.832;2023-06-04T04:13:24;26.98;;;6.57;;
74851;SDS011;63400;50.650;6.832;2023-06-04T04:15:50;10.30;;;1.80;;
74851;SDS011;63400;50.650;6.832;2023-06-04T04:18:19;12.40;;;2.45;;
74851;SDS011;63400;50.650;6.832;2023-06-04T04:20:48;9.80;;;1.83;;
74851;SDS011;63400;50.650;6.832;2023-06-04T04:23:13;10.55;;;2.17;;
74851;SDS011;63400;50.650;6.832;2023-06-04T04:25:39;10.80;;;1.92;;
74851;SDS011;63400;50.650;6.832;2023-06-04T04:28:06;9.55;;;1.70;;
74851;SDS011;63400;50.650;6.832;2023-06-04T04:30:33;11.48;;;2.25;;
74851;SDS011;63400;50.650;6.832;2023-06-04T04:33:03;11.63;;;2.53;;
74851;SDS011;63400;50.650;6.832;2023-06-04T04:35:31;14.65;;;2.90;;
74851;SDS011;63400;50.650;6.832;2023-06-04T04:37:58;12.90;;;2.10;;
74851;SDS011;63400;50.650;6.832;2023-06-04T04:40:23;11.80;;;2.55;;
74851;SDS011;63400;50.650;6.832;2023-06-04T04:42:49;12.15;;;2.25;;
74851;SDS011;63400;50.650;6.832;2023-06-04T04:45:14;12.70;;;2.58;;
74851;SDS011;63400;50.650;6.832;2023-06-04T04:47:40;10.93;;;2.15;;
74851;SDS011;63400;50.650;6.832;2023-06-04T04:50:05;10.93;;;2.38;;
74851;SDS011;63400;50.650;6.832;2023-06-04T04:52:31;10.48;;;2.03;;
74851;SDS011;63400;50.650;6.832;2023-06-04T04:54:57;11.82;;;2.60;;
74851;SDS011;63400;50.650;6.832;2023-06-04T04:57:23;14.07;;;2.22;;
74851;SDS011;63400;50.650;6.832;2023-06-04T04:59:49;12.98;;;2.78;;
74851;SDS011;63400;50.650;6.832;2023-06-04T05:02:15;9.57;;;2.42;;
74851;SDS011;63400;50.650;6.832;2023-06-04T05:04:40;10.02;;;2.78;;
74851;SDS011;63400;50.650;6.832;2023-06-04T05:07:06;8.48;;;1.52;;
74851;SDS011;63400;50.650;6.832;2023-06-04T05:09:31;8.15;;;2.72;;
74851;SDS011;63400;50.650;6.832;2023-06-04T05:11:56;9.50;;;2.75;;
74851;SDS011;63400;50.650;6.832;2023-06-04T05:14:22;8.82;;;2.72;;
74851;SDS011;63400;50.650;6.832;2023-06-04T05:16:48;7.97;;;2.95;;
74851;SDS011;63400;50.650;6.832;2023-06-04T05:19:15;9.45;;;3.53;;
74851;SDS011;63400;50.650;6.832;2023-06-04T05:21:41;7.78;;;3.10;;
74851;SDS011;63400;50.650;6.832;2023-06-04T05:24:08;7.30;;;3.15;;
74851;SDS011;63400;50.650;6.832;2023-06-04T05:26:34;8.55;;;3.08;;
74851;SDS011;63400;50.650;6.832;2023-06-04T05:29:00;6.88;;;2.92;;
74851;SDS011;63400;50.650;6.832;2023-06-04T05:31:26;7.07;;;3.10;;
74851;SDS011;63400;50.650;6.832;2023-06-04T05:33:52;6.88;;;2.45;;
74851;SDS011;63400;50.650;6.832;2023-06-04T05:36:17;6.00;;;2.42;;
74851;SDS011;63400;50.650;6.832;2023-06-04T05:38:43;5.38;;;1.95;;
74851;SDS011;63400;50.650;6.832;2023-06-04T05:41:08;4.05;;;1.85;;
74851;SDS011;63400;50.650;6.832;2023-06-04T05:43:34;5.00;;;2.22;;
74851;SDS011;63400;50.650;6.832;2023-06-04T05:45:59;4.80;;;1.60;;
74851;SDS011;63400;50.650;6.832;2023-06-04T05:48:24;3.78;;;1.27;;
74851;SDS011;63400;50.650;6.832;2023-06-04T05:50:50;5.35;;;1.73;;
74851;SDS011;63400;50.650;6.832;2023-06-04T05:53:16;4.63;;;1.58;;
74851;SDS011;63400;50.650;6.832;2023-06-04T05:55:41;5.40;;;1.77;;
74851;SDS011;63400;50.650;6.832;2023-06-04T05:58:06;3.92;;;1.48;;
74851;SDS011;63400;50.650;6.832;2023-06-04T06:00:32;3.53;;;0.85;;
74851;SDS011;63400;50.650;6.832;2023-06-04T06:02:57;3.42;;;1.00;;
74851;SDS011;63400;50.650;6.832;2023-06-04T06:05:23;4.65;;;1.00;;
74851;SDS011;63400;50.650;6.832;2023-06-04T06:07:48;3.80;;;0.88;;
74851;SDS011;63400;50.650;6.832;2023-06-04T06:10:14;5.70;;;0.70;;
74851;SDS011;63400;50.650;6.832;2023-06-04T06:12:40;5.40;;;1.00;;
74851;SDS011;63400;50.650;6.832;2023-06-04T06:15:06;3.58;;;0.98;;
74851;SDS011;63400;50.650;6.832;2023-06-04T06:17:32;3.60;;;0.80;;
74851;SDS011;63400;50.650;6.832;2023-06-04T06:19:58;5.35;;;1.08;;
74851;SDS011;63400;50.650;6.832;2023-06-04T06:22:24;5.03;;;1.13;;
74851;SDS011;63400;50.650;6.832;2023-06-04T06:24:49;4.30;;;0.85;;
74851;SDS011;63400;50.650;6.832;2023-06-04T06:27:15;4.15;;;0.75;;
74851;SDS011;63400;50.650;6.832;2023-06-04T06:29:41;2.88;;;0.68;;
74851;SDS011;63400;50.650;6.832;2023-06-04T06:32:07;2.85;;;0.80;;
74851;SDS011;63400;50.650;6.832;2023-06-04T06:34:33;3.20;;;1.08;;
74851;SDS011;63400;50.650;6.832;2023-06-04T06:36:59;3.47;;;0.93;;
74851;SDS011;63400;50.650;6.832;2023-06-04T06:39:24;4.32;;;0.93;;
74851;SDS011;63400;50.650;6.832;2023-06-04T06:41:50;4.97;;;0.82;;
74851;SDS011;63400;50.650;6.832;2023-06-04T06:44:15;3.97;;;0.98;;
74851;SDS011;63400;50.650;6.832;2023-06-04T06:46:41;3.97;;;0.65;;
74851;SDS011;63400;50.650;6.832;2023-06-04T06:49:06;4.45;;;1.13;;
74851;SDS011;63400;50.650;6.832;2023-06-04T06:51:32;2.90;;;0.73;;
74851;SDS011;63400;50.650;6.832;2023-06-04T06:53:57;3.60;;;0.77;;
74851;SDS011;63400;50.650;6.832;2023-06-04T06:56:23;3.92;;;0.75;;
74851;SDS011;63400;50.650;6.832;2023-06-04T06:58:48;4.68;;;1.00;;
74851;SDS011;63400;50.650;6.832;2023-06-04T07:01:14;3.10;;;0.80;;
74851;SDS011;63400;50.650;6.832;2023-06-04T07:03:39;4.90;;;0.93;;
74851;SDS011;63400;50.650;6.832;2023-06-04T07:06:05;3.13;;;0.70;;
74851;SDS011;63400;50.650;6.832;2023-06-04T07:08:31;2.40;;;0.50;;
74851;SDS011;63400;50.650;6.832;2023-06-04T07:10:57;5.95;;;0.85;;
74851;SDS011;63400;50.650;6.832;2023-06-04T07:13:23;4.13;;;0.75;;
74851;SDS011;63400;50.650;6.832;2023-06-04T07:15:49;2.78;;;0.90;;
74851;SDS011;63400;50.650;6.832;2023-06-04T07:18:14;2.92;;;0.60;;
74851;SDS011;63400;50.650;6.832;2023-06-04T07:20:40;3.67;;;0.93;;
74851;SDS011;63400;50.650;6.832;2023-06-04T07:23:05;3.35;;;0.65;;
74851;SDS011;63400;50.650;6.832;2023-06-04T07:25:32;4.78;;;1.20;;
74851;SDS011;63400;50.650;6.832;2023-06-04T07:27:58;4.28;;;0.70;;
74851;SDS011;63400;50.650;6.832;2023-06-04T07:30:26;3.70;;;0.60;;
74851;SDS011;63400;50.650;6.832;2023-06-04T07:32:51;3.80;;;1.30;;
74851;SDS011;63400;50.650;6.832;2023-06-04T07:35:17;2.75;;;0.63;;
74851;SDS011;63400;50.650;6.832;2023-06-04T07:37:43;3.35;;;0.75;;
74851;SDS011;63400;50.650;6.832;2023-06-04T07:40:13;4.85;;;0.90;;
74851;SDS011;63400;50.650;6.832;2023-06-04T07:42:40;2.72;;;0.57;;
74851;SDS011;63400;50.650;6.832;2023-06-04T07:45:06;3.35;;;0.98;;
74851;SDS011;63400;50.650;6.832;2023-06-04T07:49:57;2.58;;;0.82;;
74851;SDS011;63400;50.650;6.832;2023-06-04T07:52:22;3.20;;;0.80;;
74851;SDS011;63400;50.650;6.832;2023-06-04T07:54:48;3.47;;;0.50;;
74851;SDS011;63400;50.650;6.832;2023-06-04T07:57:13;2.40;;;0.55;;
74851;SDS011;63400;50.650;6.832;2023-06-04T07:59:39;4.28;;;0.90;;
74851;SDS011;63400;50.650;6.832;2023-06-04T08:02:04;2.80;;;0.70;;
74851;SDS011;63400;50.650;6.832;2023-06-04T08:04:30;3.50;;;0.60;;
74851;SDS011;63400;50.650;6.832;2023-06-04T08:06:56;2.25;;;0.68;;
74851;SDS011;63400;50.650;6.832;2023-06-04T08:09:21;2.92;;;0.95;;
74851;SDS011;63400;50.650;6.832;2023-06-04T08:11:47;2.95;;;0.50;;
74851;SDS011;63400;50.650;6.832;2023-06-04T08:14:14;3.28;;;0.73;;
74851;SDS011;63400;50.650;6.832;2023-06-04T08:16:39;5.00;;;0.77;;
74851;SDS011;63400;50.650;6.832;2023-06-04T08:21:32;6.32;;;1.08;;
74851;SDS011;63400;50.650;6.832;2023-06-04T08:23:58;3.28;;;0.68;;
74851;SDS011;63400;50.650;6.832;2023-06-04T08:26:24;2.60;;;0.52;;
74851;SDS011;63400;50.650;6.832;2023-06-04T08:28:50;2.55;;;0.65;;
74851;SDS011;63400;50.650;6.832;2023-06-04T08:31:16;1.92;;;0.40;;
74851;SDS011;63400;50.650;6.832;2023-06-04T08:33:42;2.38;;;0.70;;
74851;SDS011;63400;50.650;6.832;2023-06-04T08:36:07;2.75;;;0.60;;
74851;SDS011;63400;50.650;6.832;2023-06-04T08:38:33;3.95;;;0.90;;
74851;SDS011;63400;50.650;6.832;2023-06-04T08:41:02;2.72;;;0.73;;
74851;SDS011;63400;50.650;6.832;2023-06-04T08:43:55;3.03;;;0.93;;
74851;SDS011;63400;50.650;6.832;2023-06-04T08:46:21;3.22;;;0.60;;
74851;SDS011;63400;50.650;6.832;2023-06-04T08:48:47;3.33;;;0.70;;
74851;SDS011;63400;50.650;6.832;2023-06-04T08:51:14;3.08;;;0.90;;
74851;SDS011;63400;50.650;6.832;2023-06-04T08:56:06;3.38;;;0.85;;
74851;SDS011;63400;50.650;6.832;2023-06-04T08:58:32;3.50;;;0.65;;
74851;SDS011;63400;50.650;6.832;2023-06-04T09:01:00;2.13;;;0.50;;
74851;SDS011;63400;50.650;6.832;2023-06-04T09:05:52;4.32;;;0.93;;
74851;SDS011;63400;50.650;6.832;2023-06-04T09:10:44;2.35;;;0.40;;
74851;SDS011;63400;50.650;6.832;2023-06-04T09:13:11;1.83;;;0.47;;
74851;SDS011;63400;50.650;6.832;2023-06-04T09:15:38;2.78;;;0.90;;
74851;SDS011;63400;50.650;6.832;2023-06-04T09:20:29;4.45;;;0.70;;
74851;SDS011;63400;50.650;6.832;2023-06-04T09:22:54;2.17;;;0.70;;
74851;SDS011;63400;50.650;6.832;2023-06-04T09:25:21;1.92;;;0.40;;
74851;SDS011;63400;50.650;6.832;2023-06-04T09:27:47;2.92;;;1.13;;
74851;SDS011;63400;50.650;6.832;2023-06-04T09:30:14;3.42;;;0.73;;
74851;SDS011;63400;50.650;6.832;2023-06-04T09:32:39;5.47;;;0.80;;
74851;SDS011;63400;50.650;6.832;2023-06-04T09:35:10;3.83;;;0.60;;
74851;SDS011;63400;50.650;6.832;2023-06-04T09:37:40;3.13;;;0.65;;
74851;SDS011;63400;50.650;6.832;2023-06-04T09:40:06;2.47;;;0.75;;
74851;SDS011;63400;50.650;6.832;2023-06-04T09:42:42;2.92;;;0.47;;
74851;SDS011;63400;50.650;6.832;2023-06-04T09:45:11;14.77;;;1.75;;
74851;SDS011;63400;50.650;6.832;2023-06-04T09:47:43;3.58;;;0.85;;
74851;SDS011;63400;50.650;6.832;2023-06-04T09:50:12;2.70;;;0.60;;
74851;SDS011;63400;50.650;6.832;2023-06-04T09:52:37;2.40;;;0.90;;
74851;SDS011;63400;50.650;6.832;2023-06-04T09:55:14;2.03;;;0.70;;
74851;SDS011;63400;50.650;6.832;2023-06-04T09:57:44;3.63;;;1.17;;
74851;SDS011;63400;50.650;6.832;2023-06-04T10:00:12;2.10;;;0.63;;
74851;SDS011;63400;50.650;6.832;2023-06-04T10:02:39;1.98;;;0.63;;
74851;SDS011;63400;50.650;6.832;2023-06-04T10:05:05;3.05;;;0.70;;
74851;SDS011;63400;50.650;6.832;2023-06-04T10:07:33;3.83;;;1.05;;
74851;SDS011;63400;50.650;6.832;2023-06-04T10:10:02;5.07;;;0.80;;
74851;SDS011;63400;50.650;6.832;2023-06-04T10:12:29;3.10;;;0.82;;
74851;SDS011;63400;50.650;6.832;2023-06-04T10:14:56;2.75;;;0.82;;
74851;SDS011;63400;50.650;6.832;2023-06-04T10:17:24;4.30;;;0.70;;
74851;SDS011;63400;50.650;6.832;2023-06-04T10:19:52;2.78;;;0.80;;
74851;SDS011;63400;50.650;6.832;2023-06-04T10:22:19;3.55;;;0.60;;
74851;SDS011;63400;50.650;6.832;2023-06-04T10:24:45;3.28;;;0.70;;
74851;SDS011;63400;50.650;6.832;2023-06-04T10:27:12;4.82;;;1.00;;
74851;SDS011;63400;50.650;6.832;2023-06-04T10:29:38;5.03;;;0.75;;
74851;SDS011;63400;50.650;6.832;2023-06-04T10:32:04;4.95;;;0.80;;
74851;SDS011;63400;50.650;6.832;2023-06-04T10:34:30;2.83;;;0.70;;
74851;SDS011;63400;50.650;6.832;2023-06-04T10:36:55;2.78;;;0.70;;
74851;SDS011;63400;50.650;6.832;2023-06-04T10:39:39;2.90;;;0.60;;
74851;SDS011;63400;50.650;6.832;2023-06-04T10:42:15;3.65;;;0.60;;
74851;SDS011;63400;50.650;6.832;2023-06-04T10:44:45;3.67;;;0.90;;
74851;SDS011;63400;50.650;6.832;2023-06-04T10:47:19;4.18;;;0.85;;
74851;SDS011;63400;50.650;6.832;2023-06-04T10:49:46;3.80;;;0.85;;
74851;SDS011;63400;50.650;6.832;2023-06-04T10:52:11;7.05;;;2.53;;
74851;SDS011;63400;50.650;6.832;2023-06-04T10:54:37;6.05;;;0.90;;
74851;SDS011;63400;50.650;6.832;2023-06-04T10:59:38;3.75;;;0.60;;
74851;SDS011;63400;50.650;6.832;2023-06-04T11:02:07;3.50;;;0.47;;
74851;SDS011;63400;50.650;6.832;2023-06-04T11:04:33;2.90;;;0.60;;
74851;SDS011;63400;50.650;6.832;2023-06-04T11:07:05;2.78;;;0.45;;
74851;SDS011;63400;50.650;6.832;2023-06-04T11:09:35;3.35;;;0.60;;
74851;SDS011;63400;50.650;6.832;2023-06-04T11:12:01;19.52;;;1.27;;
74851;SDS011;63400;50.650;6.832;2023-06-04T11:14:29;6.47;;;0.70;;
74851;SDS011;63400;50.650;6.832;2023-06-04T11:16:54;3.60;;;0.57;;
74851;SDS011;63400;50.650;6.832;2023-06-04T11:19:20;4.30;;;1.20;;
74851;SDS011;63400;50.650;6.832;2023-06-04T11:21:45;3.20;;;0.95;;
74851;SDS011;63400;50.650;6.832;2023-06-04T11:24:14;4.07;;;0.60;;
74851;SDS011;63400;50.650;6.832;2023-06-04T11:26:40;5.82;;;0.80;;
74851;SDS011;63400;50.650;6.832;2023-06-04T11:29:05;4.13;;;0.70;;
74851;SDS011;63400;50.650;6.832;2023-06-04T11:31:42;4.75;;;0.93;;
74851;SDS011;63400;50.650;6.832;2023-06-04T11:34:21;5.70;;;1.30;;
74851;SDS011;63400;50.650;6.832;2023-06-04T11:36:50;4.85;;;0.60;;
74851;SDS011;63400;50.650;6.832;2023-06-04T11:39:18;6.28;;;1.17;;
74851;SDS011;63400;50.650;6.832;2023-06-04T11:41:44;6.43;;;1.02;;
74851;SDS011;63400;50.650;6.832;2023-06-04T11:44:10;4.13;;;0.88;;
74851;SDS011;63400;50.650;6.832;2023-06-04T11:49:05;4.95;;;0.93;;
74851;SDS011;63400;50.650;6.832;2023-06-04T11:51:31;3.83;;;0.90;;
74851;SDS011;63400;50.650;6.832;2023-06-04T11:53:57;6.53;;;1.55;;
74851;SDS011;63400;50.650;6.832;2023-06-04T11:56:23;4.30;;;0.98;;
74851;SDS011;63400;50.650;6.832;2023-06-04T11:58:50;4.82;;;1.27;;
74851;SDS011;63400;50.650;6.832;2023-06-04T12:01:16;4.43;;;1.02;;
74851;SDS011;63400;50.650;6.832;2023-06-04T12:03:43;3.65;;;0.75;;
74851;SDS011;63400;50.650;6.832;2023-06-04T12:06:12;5.00;;;1.40;;
74851;SDS011;63400;50.650;6.832;2023-06-04T12:08:45;4.95;;;1.00;;
74851;SDS011;63400;50.650;6.832;2023-06-04T12:13:53;3.58;;;1.13;;
74851;SDS011;63400;50.650;6.832;2023-06-04T12:16:19;3.60;;;0.80;;
74851;SDS011;63400;50.650;6.832;2023-06-04T12:18:45;3.60;;;0.93;;
74851;SDS011;63400;50.650;6.832;2023-06-04T12:21:43;5.30;;;1.23;;
74851;SDS011;63400;50.650;6.832;2023-06-04T12:24:06;5.15;;;0.90;;
74851;SDS011;63400;50.650;6.832;2023-06-04T12:29:12;27.17;;;1.75;;
74851;SDS011;63400;50.650;6.832;2023-06-04T12:31:39;4.40;;;0.85;;
74851;SDS011;63400;50.650;6.832;2023-06-04T12:34:05;52.95;;;4.18;;
74851;SDS011;63400;50.650;6.832;2023-06-04T12:36:31;4.45;;;0.90;;
74851;SDS011;63400;50.650;6.832;2023-06-04T12:38:59;6.55;;;0.98;;
74851;SDS011;63400;50.650;6.832;2023-06-04T12:41:27;3.95;;;0.90;;
74851;SDS011;63400;50.650;6.832;2023-06-04T12:43:53;3.97;;;1.23;;
74851;SDS011;63400;50.650;6.832;2023-06-04T12:46:20;6.28;;;1.23;;
74851;SDS011;63400;50.650;6.832;2023-06-04T12:48:46;4.70;;;1.25;;
74851;SDS011;63400;50.650;6.832;2023-06-04T12:51:12;3.40;;;0.90;;
74851;SDS011;63400;50.650;6.832;2023-06-04T12:53:38;3.80;;;0.85;;
74851;SDS011;63400;50.650;6.832;2023-06-04T12:56:05;4.00;;;1.13;;
74851;SDS011;63400;50.650;6.832;2023-06-04T12:58:30;3.67;;;0.95;;
74851;SDS011;63400;50.650;6.832;2023-06-04T13:00:56;5.15;;;1.15;;
74851;SDS011;63400;50.650;6.832;2023-06-04T13:03:21;5.35;;;1.15;;
74851;SDS011;63400;50.650;6.832;2023-06-04T13:05:47;5.88;;;2.80;;
74851;SDS011;63400;50.650;6.832;2023-06-04T13:08:13;5.60;;;2.00;;
74851;SDS011;63400;50.650;6.832;2023-06-04T13:10:39;5.28;;;1.33;;
74851;SDS011;63400;50.650;6.832;2023-06-04T13:13:04;4.90;;;1.45;;
74851;SDS011;63400;50.650;6.832;2023-06-04T13:15:30;3.88;;;1.05;;
74851;SDS011;63400;50.650;6.832;2023-06-04T13:17:55;4.95;;;1.58;;
74851;SDS011;63400;50.650;6.832;2023-06-04T13:20:21;5.32;;;1.77;;
74851;SDS011;63400;50.650;6.832;2023-06-04T13:22:46;41.28;;;3.58;;
74851;SDS011;63400;50.650;6.832;2023-06-04T13:25:12;4.82;;;1.55;;
74851;SDS011;63400;50.650;6.832;2023-06-04T13:27:38;5.03;;;1.75;;
74851;SDS011;63400;50.650;6.832;2023-06-04T13:30:03;3.75;;;1.23;;
74851;SDS011;63400;50.650;6.832;2023-06-04T13:32:30;5.07;;;1.60;;
74851;SDS011;63400;50.650;6.832;2023-06-04T13:34:56;6.18;;;1.85;;
74851;SDS011;63400;50.650;6.832;2023-06-04T13:37:21;4.22;;;1.42;;
74851;SDS011;63400;50.650;6.832;2023-06-04T13:39:47;5.10;;;1.50;;
74851;SDS011;63400;50.650;6.832;2023-06-04T13:42:12;3.25;;;1.27;;
74851;SDS011;63400;50.650;6.832;2023-06-04T13:44:38;5.18;;;1.63;;
74851;SDS011;63400;50.650;6.832;2023-06-04T13:47:03;5.68;;;1.73;;
74851;SDS011;63400;50.650;6.832;2023-06-04T13:49:31;5.40;;;1.60;;
74851;SDS011;63400;50.650;6.832;2023-06-04T13:51:58;3.67;;;1.40;;
74851;SDS011;63400;50.650;6.832;2023-06-04T13:54:23;6.85;;;2.35;;
74851;SDS011;63400;50.650;6.832;2023-06-04T13:56:49;4.95;;;1.70;;
74851;SDS011;63400;50.650;6.832;2023-06-04T13:59:14;5.70;;;1.48;;
74851;SDS011;63400;50.650;6.832;2023-06-04T14:01:40;5.20;;;1.77;;
74851;SDS011;63400;50.650;6.832;2023-06-04T14:04:05;6.43;;;1.80;;
74851;SDS011;63400;50.650;6.832;2023-06-04T14:06:31;6.20;;;1.65;;
74851;SDS011;63400;50.650;6.832;2023-06-04T14:08:57;6.93;;;1.75;;
74851;SDS011;63400;50.650;6.832;2023-06-04T14:11:24;4.78;;;1.48;;
74851;SDS011;63400;50.650;6.832;2023-06-04T14:13:51;21.88;;;3.10;;
74851;SDS011;63400;50.650;6.832;2023-06-04T14:16:16;6.70;;;2.00;;
74851;SDS011;63400;50.650;6.832;2023-06-04T14:18:42;6.88;;;1.73;;
74851;SDS011;63400;50.650;6.832;2023-06-04T14:21:07;5.13;;;1.73;;
74851;SDS011;63400;50.650;6.832;2023-06-04T14:23:33;5.63;;;1.60;;
74851;SDS011;63400;50.650;6.832;2023-06-04T14:25:58;5.35;;;1.77;;
74851;SDS011;63400;50.650;6.832;2023-06-04T14:28:24;5.75;;;1.67;;
74851;SDS011;63400;50.650;6.832;2023-06-04T14:30:50;3.67;;;1.25;;
74851;SDS011;63400;50.650;6.832;2023-06-04T14:33:16;6.18;;;1.48;;
74851;SDS011;63400;50.650;6.832;2023-06-04T14:35:41;6.15;;;1.90;;
74851;SDS011;63400;50.650;6.832;2023-06-04T14:38:11;6.82;;;2.35;;
74851;SDS011;63400;50.650;6.832;2023-06-04T14:40:40;7.05;;;1.65;;
74851;SDS011;63400;50.650;6.832;2023-06-04T14:43:06;5.10;;;1.60;;
74851;SDS011;63400;50.650;6.832;2023-06-04T14:45:32;4.75;;;1.23;;
74851;SDS011;63400;50.650;6.832;2023-06-04T14:47:58;5.88;;;1.60;;
74851;SDS011;63400;50.650;6.832;2023-06-04T14:50:23;6.10;;;1.35;;
74851;SDS011;63400;50.650;6.832;2023-06-04T14:52:49;4.13;;;1.17;;
74851;SDS011;63400;50.650;6.832;2023-06-04T14:55:15;5.03;;;1.98;;
74851;SDS011;63400;50.650;6.832;2023-06-04T14:57:40;5.97;;;1.60;;
74851;SDS011;63400;50.650;6.832;2023-06-04T15:00:06;4.57;;;1.42;;
74851;SDS011;63400;50.650;6.832;2023-06-04T15:02:31;4.95;;;1.42;;
74851;SDS011;63400;50.650;6.832;2023-06-04T15:04:57;6.05;;;1.25;;
74851;SDS011;63400;50.650;6.832;2023-06-04T15:07:22;4.88;;;1.38;;
74851;SDS011;63400;50.650;6.832;2023-06-04T15:09:48;5.57;;;1.40;;
74851;SDS011;63400;50.650;6.832;2023-06-04T15:12:14;4.70;;;1.25;;
74851;SDS011;63400;50.650;6.832;2023-06-04T15:14:41;5.40;;;1.17;;